sensor_id;sensor_type;location;lat;lon;timestamp;P1;durP1;ratioP1;P2;durP2;ratioP2
31692;SDS011;37436;53.230;6.614;2023-07-20T00:01:54;4.78;;;2.60;;
31692;SDS011;37436;53.230;6.614;2023-07-20T00:04:20;4.45;;;2.45;;
31692;SDS011;37436;53.230;6.614;2023-07-20T00:06:46;5.68;;;2.65;;
31692;SDS011;37436;53.230;6.614;2023-07-20T00:09:13;2.45;;;2.00;;
31692;SDS011;37436;53.230;6.614;2023-07-20T00:11:39;5.85;;;2.85;;
31692;SDS011;37436;53.230;6.614;2023-07-20T00:14:05;6.65;;;2.65;;
31692;SDS011;37436;53.230;6.614;2023-07-20T00:16:31;3.00;;;2.15;;
31692;SDS011;37436;53.230;6.614;2023-07-20T00:18:58;6.03;;;2.60;;
31692;SDS011;37436;53.230;6.614;2023-07-20T00:21:24;5.88;;;2.22;;
31692;SDS011;37436;53.230;6.614;2023-07-20T00:23:51;3.58;;;1.85;;
31692;SDS011;37436;53.230;6.614;2023-07-20T00:26:17;3.38;;;2.38;;
31692;SDS011;37436;53.230;6.614;2023-07-20T00:28:43;4.68;;;2.58;;
31692;SDS011;37436;53.230;6.614;2023-07-20T00:31:09;6.50;;;2.72;;
31692;SDS011;37436;53.230;6.614;2023-07-20T00:33:35;5.43;;;2.42;;
31692;SDS011;37436;53.230;6.614;2023-07-20T00:36:01;4.78;;;2.63;;
31692;SDS011;37436;53.230;6.614;2023-07-20T00:38:27;2.78;;;2.50;;
31692;SDS011;37436;53.230;6.614;2023-07-20T00:40:53;4.75;;;2.45;;
31692;SDS011;37436;53.230;6.614;2023-07-20T00:43:19;8.90;;;3.30;;
31692;SDS011;37436;53.230;6.614;2023-07-20T00:45:45;5.65;;;2.90;;
31692;SDS011;37436;53.230;6.614;2023-07-20T00:48:11;7.35;;;2.53;;
31692;SDS011;37436;53.230;6.614;2023-07-20T00:50:38;4.75;;;2.47;;
31692;SDS011;37436;53.230;6.614;2023-07-20T00:53:05;8.90;;;2.88;;
31692;SDS011;37436;53.230;6.614;2023-07-20T00:55:31;5.93;;;2.50;;
31692;SDS011;37436;53.230;6.614;2023-07-20T00:57:58;3.20;;;2.88;;
31692;SDS011;37436;53.230;6.614;2023-07-20T01:00:25;5.85;;;2.20;;
31692;SDS011;37436;53.230;6.614;2023-07-20T01:02:51;3.90;;;2.72;;
31692;SDS011;37436;53.230;6.614;2023-07-20T01:05:17;3.20;;;2.40;;
31692;SDS011;37436;53.230;6.614;2023-07-20T01:10:40;7.40;;;2.70;;
31692;SDS011;37436;53.230;6.614;2023-07-20T01:13:10;5.03;;;2.60;;
31692;SDS011;37436;53.230;6.614;2023-07-20T01:15:37;6.65;;;2.80;;
31692;SDS011;37436;53.230;6.614;2023-07-20T01:18:04;6.20;;;2.45;;
31692;SDS011;37436;53.230;6.614;2023-07-20T01:20:30;6.68;;;2.33;;
31692;SDS011;37436;53.230;6.614;2023-07-20T01:23:05;5.07;;;2.10;;
31692;SDS011;37436;53.230;6.614;2023-07-20T01:33:21;5.47;;;2.63;;
31692;SDS011;37436;53.230;6.614;2023-07-20T01:35:50;3.45;;;2.40;;
31692;SDS011;37436;53.230;6.614;2023-07-20T01:38:16;3.50;;;2.50;;
31692;SDS011;37436;53.230;6.614;2023-07-20T01:40:44;4.20;;;2.60;;
31692;SDS011;37436;53.230;6.614;2023-07-20T01:43:11;7.40;;;2.40;;
31692;SDS011;37436;53.230;6.614;2023-07-20T01:45:37;8.95;;;2.47;;
31692;SDS011;37436;53.230;6.614;2023-07-20T01:48:03;3.50;;;2.50;;
31692;SDS011;37436;53.230;6.614;2023-07-20T01:50:29;3.88;;;2.38;;
31692;SDS011;37436;53.230;6.614;2023-07-20T01:52:55;3.10;;;2.22;;
31692;SDS011;37436;53.230;6.614;2023-07-20T01:55:21;4.28;;;2.65;;
31692;SDS011;37436;53.230;6.614;2023-07-20T01:57:47;4.28;;;2.60;;
31692;SDS011;37436;53.230;6.614;2023-07-20T02:00:13;4.47;;;2.53;;
31692;SDS011;37436;53.230;6.614;2023-07-20T02:02:40;3.88;;;2.72;;
31692;SDS011;37436;53.230;6.614;2023-07-20T02:05:07;3.72;;;2.58;;
31692;SDS011;37436;53.230;6.614;2023-07-20T02:07:33;3.13;;;2.22;;
31692;SDS011;37436;53.230;6.614;2023-07-20T02:09:59;7.93;;;2.67;;
31692;SDS011;37436;53.230;6.614;2023-07-20T02:12:25;5.53;;;2.25;;
31692;SDS011;37436;53.230;6.614;2023-07-20T02:14:51;3.33;;;2.53;;
31692;SDS011;37436;53.230;6.614;2023-07-20T02:17:18;4.30;;;2.85;;
31692;SDS011;37436;53.230;6.614;2023-07-20T02:19:44;6.53;;;2.45;;
31692;SDS011;37436;53.230;6.614;2023-07-20T02:22:10;6.60;;;2.40;;
31692;SDS011;37436;53.230;6.614;2023-07-20T02:24:36;7.13;;;2.80;;
31692;SDS011;37436;53.230;6.614;2023-07-20T02:27:02;5.05;;;2.45;;
31692;SDS011;37436;53.230;6.614;2023-07-20T02:29:28;3.80;;;2.28;;
31692;SDS011;37436;53.230;6.614;2023-07-20T02:31:54;5.25;;;2.40;;
31692;SDS011;37436;53.230;6.614;2023-07-20T02:34:20;3.72;;;2.45;;
31692;SDS011;37436;53.230;6.614;2023-07-20T02:36:46;4.55;;;2.35;;
31692;SDS011;37436;53.230;6.614;2023-07-20T02:39:13;6.07;;;2.65;;
31692;SDS011;37436;53.230;6.614;2023-07-20T02:41:39;4.85;;;2.42;;
31692;SDS011;37436;53.230;6.614;2023-07-20T02:44:05;5.45;;;2.50;;
31692;SDS011;37436;53.230;6.614;2023-07-20T02:46:34;4.35;;;2.42;;
31692;SDS011;37436;53.230;6.614;2023-07-20T02:49:00;4.38;;;2.30;;
31692;SDS011;37436;53.230;6.614;2023-07-20T02:51:26;4.75;;;2.13;;
31692;SDS011;37436;53.230;6.614;2023-07-20T02:54:00;5.55;;;2.50;;
31692;SDS011;37436;53.230;6.614;2023-07-20T02:56:26;7.15;;;3.00;;
31692;SDS011;37436;53.230;6.614;2023-07-20T02:58:52;4.45;;;2.30;;
31692;SDS011;37436;53.230;6.614;2023-07-20T03:01:18;8.82;;;2.25;;
31692;SDS011;37436;53.230;6.614;2023-07-20T03:03:44;4.10;;;2.28;;
31692;SDS011;37436;53.230;6.614;2023-07-20T03:06:12;3.22;;;2.20;;
31692;SDS011;37436;53.230;6.614;2023-07-20T03:08:39;4.68;;;2.38;;
31692;SDS011;37436;53.230;6.614;2023-07-20T03:11:06;2.97;;;1.88;;
31692;SDS011;37436;53.230;6.614;2023-07-20T03:13:32;3.08;;;2.20;;
31692;SDS011;37436;53.230;6.614;2023-07-20T03:15:58;2.95;;;2.30;;
31692;SDS011;37436;53.230;6.614;2023-07-20T03:18:24;4.07;;;2.10;;
31692;SDS011;37436;53.230;6.614;2023-07-20T03:20:51;4.90;;;2.00;;
31692;SDS011;37436;53.230;6.614;2023-07-20T03:23:17;5.25;;;2.10;;
31692;SDS011;37436;53.230;6.614;2023-07-20T03:25:43;4.75;;;2.22;;
31692;SDS011;37436;53.230;6.614;2023-07-20T03:28:09;6.82;;;2.30;;
31692;SDS011;37436;53.230;6.614;2023-07-20T03:30:35;5.93;;;2.42;;
31692;SDS011;37436;53.230;6.614;2023-07-20T03:33:02;2.78;;;2.30;;
31692;SDS011;37436;53.230;6.614;2023-07-20T03:35:28;3.67;;;2.22;;
31692;SDS011;37436;53.230;6.614;2023-07-20T03:37:56;5.05;;;2.40;;
31692;SDS011;37436;53.230;6.614;2023-07-20T03:40:22;4.90;;;2.60;;
31692;SDS011;37436;53.230;6.614;2023-07-20T03:42:49;3.60;;;2.40;;
31692;SDS011;37436;53.230;6.614;2023-07-20T03:45:15;8.95;;;2.53;;
31692;SDS011;37436;53.230;6.614;2023-07-20T03:47:41;6.45;;;2.80;;
31692;SDS011;37436;53.230;6.614;2023-07-20T03:50:15;3.65;;;2.58;;
31692;SDS011;37436;53.230;6.614;2023-07-20T03:52:48;4.65;;;2.67;;
31692;SDS011;37436;53.230;6.614;2023-07-20T03:55:14;4.20;;;3.03;;
31692;SDS011;37436;53.230;6.614;2023-07-20T03:57:40;5.75;;;2.60;;
31692;SDS011;37436;53.230;6.614;2023-07-20T04:00:07;4.65;;;2.45;;
31692;SDS011;37436;53.230;6.614;2023-07-20T04:02:42;7.82;;;2.60;;
31692;SDS011;37436;53.230;6.614;2023-07-20T04:05:08;12.68;;;3.13;;
31692;SDS011;37436;53.230;6.614;2023-07-20T04:07:34;5.15;;;2.75;;
31692;SDS011;37436;53.230;6.614;2023-07-20T04:10:00;8.32;;;3.67;;
31692;SDS011;37436;53.230;6.614;2023-07-20T04:12:26;4.05;;;2.85;;
31692;SDS011;37436;53.230;6.614;2023-07-20T04:14:52;3.85;;;3.05;;
31692;SDS011;37436;53.230;6.614;2023-07-20T04:17:18;5.70;;;3.33;;
31692;SDS011;37436;53.230;6.614;2023-07-20T04:19:44;7.00;;;3.13;;
31692;SDS011;37436;53.230;6.614;2023-07-20T04:22:10;13.10;;;3.95;;
31692;SDS011;37436;53.230;6.614;2023-07-20T04:24:36;8.98;;;3.70;;
31692;SDS011;37436;53.230;6.614;2023-07-20T04:27:02;6.53;;;3.40;;
31692;SDS011;37436;53.230;6.614;2023-07-20T04:29:29;7.13;;;3.55;;
31692;SDS011;37436;53.230;6.614;2023-07-20T04:31:55;5.20;;;3.13;;
31692;SDS011;37436;53.230;6.614;2023-07-20T04:34:22;6.05;;;3.35;;
31692;SDS011;37436;53.230;6.614;2023-07-20T04:36:48;5.25;;;3.08;;
31692;SDS011;37436;53.230;6.614;2023-07-20T04:39:14;8.60;;;2.80;;
31692;SDS011;37436;53.230;6.614;2023-07-20T04:41:40;8.93;;;2.97;;
31692;SDS011;37436;53.230;6.614;2023-07-20T04:44:06;5.78;;;3.60;;
31692;SDS011;37436;53.230;6.614;2023-07-20T04:46:32;9.88;;;3.95;;
31692;SDS011;37436;53.230;6.614;2023-07-20T04:48:58;7.05;;;4.00;;
31692;SDS011;37436;53.230;6.614;2023-07-20T04:51:31;6.32;;;3.90;;
31692;SDS011;37436;53.230;6.614;2023-07-20T04:54:04;6.43;;;3.83;;
31692;SDS011;37436;53.230;6.614;2023-07-20T04:56:30;10.73;;;3.97;;
31692;SDS011;37436;53.230;6.614;2023-07-20T04:58:56;4.15;;;3.20;;
31692;SDS011;37436;53.230;6.614;2023-07-20T05:01:23;7.32;;;3.22;;
31692;SDS011;37436;53.230;6.614;2023-07-20T05:03:49;6.78;;;3.53;;
31692;SDS011;37436;53.230;6.614;2023-07-20T05:06:15;9.60;;;3.20;;
31692;SDS011;37436;53.230;6.614;2023-07-20T05:08:43;5.25;;;2.88;;
31692;SDS011;37436;53.230;6.614;2023-07-20T05:11:09;5.95;;;2.45;;
31692;SDS011;37436;53.230;6.614;2023-07-20T05:13:36;6.38;;;2.05;;
31692;SDS011;37436;53.230;6.614;2023-07-20T05:16:02;3.97;;;1.85;;
31692;SDS011;37436;53.230;6.614;2023-07-20T05:18:28;2.95;;;1.52;;
31692;SDS011;37436;53.230;6.614;2023-07-20T05:20:54;8.00;;;1.83;;
31692;SDS011;37436;53.230;6.614;2023-07-20T05:23:20;5.68;;;1.85;;
31692;SDS011;37436;53.230;6.614;2023-07-20T05:25:47;2.58;;;1.33;;
31692;SDS011;37436;53.230;6.614;2023-07-20T05:28:13;5.72;;;1.70;;
31692;SDS011;37436;53.230;6.614;2023-07-20T05:30:40;4.78;;;1.42;;
31692;SDS011;37436;53.230;6.614;2023-07-20T05:33:06;2.22;;;1.40;;
31692;SDS011;37436;53.230;6.614;2023-07-20T05:35:32;2.35;;;1.10;;
31692;SDS011;37436;53.230;6.614;2023-07-20T05:37:58;7.05;;;1.42;;
31692;SDS011;37436;53.230;6.614;2023-07-20T05:40:24;3.55;;;1.17;;
31692;SDS011;37436;53.230;6.614;2023-07-20T05:42:51;5.82;;;1.38;;
31692;SDS011;37436;53.230;6.614;2023-07-20T05:45:19;2.55;;;1.10;;
31692;SDS011;37436;53.230;6.614;2023-07-20T05:47:46;5.72;;;1.67;;
31692;SDS011;37436;53.230;6.614;2023-07-20T05:50:12;2.17;;;1.17;;
31692;SDS011;37436;53.230;6.614;2023-07-20T05:52:38;3.17;;;1.65;;
31692;SDS011;37436;53.230;6.614;2023-07-20T05:55:07;2.10;;;1.45;;
31692;SDS011;37436;53.230;6.614;2023-07-20T05:57:33;7.18;;;1.63;;
31692;SDS011;37436;53.230;6.614;2023-07-20T06:00:00;8.30;;;1.40;;
31692;SDS011;37436;53.230;6.614;2023-07-20T06:02:26;1.98;;;1.15;;
31692;SDS011;37436;53.230;6.614;2023-07-20T06:04:54;2.15;;;1.10;;
31692;SDS011;37436;53.230;6.614;2023-07-20T06:07:20;5.28;;;1.45;;
31692;SDS011;37436;53.230;6.614;2023-07-20T06:09:46;1.13;;;0.80;;
31692;SDS011;37436;53.230;6.614;2023-07-20T06:12:12;3.92;;;0.90;;
31692;SDS011;37436;53.230;6.614;2023-07-20T06:14:39;2.83;;;1.17;;
31692;SDS011;37436;53.230;6.614;2023-07-20T06:17:05;6.10;;;1.15;;
31692;SDS011;37436;53.230;6.614;2023-07-20T06:19:31;4.70;;;1.15;;
31692;SDS011;37436;53.230;6.614;2023-07-20T06:21:57;3.50;;;1.08;;
31692;SDS011;37436;53.230;6.614;2023-07-20T06:24:23;3.55;;;1.05;;
31692;SDS011;37436;53.230;6.614;2023-07-20T06:26:49;2.30;;;1.00;;
31692;SDS011;37436;53.230;6.614;2023-07-20T06:29:15;3.10;;;1.20;;
31692;SDS011;37436;53.230;6.614;2023-07-20T06:31:41;3.55;;;1.02;;
31692;SDS011;37436;53.230;6.614;2023-07-20T06:34:07;1.98;;;1.10;;
31692;SDS011;37436;53.230;6.614;2023-07-20T06:36:33;1.80;;;1.38;;
31692;SDS011;37436;53.230;6.614;2023-07-20T06:39:00;8.18;;;1.38;;
31692;SDS011;37436;53.230;6.614;2023-07-20T06:41:27;3.63;;;1.10;;
31692;SDS011;37436;53.230;6.614;2023-07-20T06:43:53;4.28;;;1.20;;
31692;SDS011;37436;53.230;6.614;2023-07-20T06:46:26;5.28;;;1.52;;
31692;SDS011;37436;53.230;6.614;2023-07-20T06:48:52;5.32;;;1.60;;
31692;SDS011;37436;53.230;6.614;2023-07-20T06:51:27;2.75;;;1.55;;
31692;SDS011;37436;53.230;6.614;2023-07-20T06:53:59;3.92;;;1.48;;
31692;SDS011;37436;53.230;6.614;2023-07-20T06:56:25;7.88;;;1.95;;
31692;SDS011;37436;53.230;6.614;2023-07-20T06:58:51;7.57;;;1.90;;
31692;SDS011;37436;53.230;6.614;2023-07-20T07:01:17;5.40;;;1.80;;
31692;SDS011;37436;53.230;6.614;2023-07-20T07:03:46;3.85;;;1.63;;
31692;SDS011;37436;53.230;6.614;2023-07-20T07:06:12;4.20;;;1.85;;
31692;SDS011;37436;53.230;6.614;2023-07-20T07:08:40;3.88;;;1.80;;
31692;SDS011;37436;53.230;6.614;2023-07-20T07:11:08;6.68;;;1.58;;
31692;SDS011;37436;53.230;6.614;2023-07-20T07:13:34;5.75;;;1.80;;
31692;SDS011;37436;53.230;6.614;2023-07-20T07:16:03;4.70;;;1.70;;
31692;SDS011;37436;53.230;6.614;2023-07-20T07:18:33;2.28;;;1.60;;
31692;SDS011;37436;53.230;6.614;2023-07-20T07:20:59;7.00;;;1.50;;
31692;SDS011;37436;53.230;6.614;2023-07-20T07:23:25;4.07;;;1.90;;
31692;SDS011;37436;53.230;6.614;2023-07-20T07:25:52;5.65;;;1.75;;
31692;SDS011;37436;53.230;6.614;2023-07-20T07:28:18;3.90;;;1.98;;
31692;SDS011;37436;53.230;6.614;2023-07-20T07:30:44;5.90;;;1.77;;
31692;SDS011;37436;53.230;6.614;2023-07-20T07:33:10;7.10;;;1.88;;
31692;SDS011;37436;53.230;6.614;2023-07-20T07:35:37;7.80;;;1.98;;
31692;SDS011;37436;53.230;6.614;2023-07-20T07:38:03;2.83;;;1.60;;
31692;SDS011;37436;53.230;6.614;2023-07-20T07:40:30;5.05;;;2.10;;
31692;SDS011;37436;53.230;6.614;2023-07-20T07:42:56;5.47;;;2.03;;
31692;SDS011;37436;53.230;6.614;2023-07-20T07:45:22;4.00;;;1.98;;
31692;SDS011;37436;53.230;6.614;2023-07-20T07:47:49;5.53;;;1.65;;
31692;SDS011;37436;53.230;6.614;2023-07-20T07:50:15;7.78;;;1.98;;
31692;SDS011;37436;53.230;6.614;2023-07-20T07:52:41;2.90;;;1.40;;
31692;SDS011;37436;53.230;6.614;2023-07-20T07:55:07;5.90;;;1.70;;
31692;SDS011;37436;53.230;6.614;2023-07-20T07:57:33;4.95;;;1.75;;
31692;SDS011;37436;53.230;6.614;2023-07-20T07:59:59;3.38;;;1.55;;
31692;SDS011;37436;53.230;6.614;2023-07-20T08:02:25;3.70;;;1.45;;
31692;SDS011;37436;53.230;6.614;2023-07-20T08:04:51;4.22;;;1.60;;
31692;SDS011;37436;53.230;6.614;2023-07-20T08:07:17;4.05;;;1.45;;
31692;SDS011;37436;53.230;6.614;2023-07-20T08:09:44;3.03;;;1.67;;
31692;SDS011;37436;53.230;6.614;2023-07-20T08:12:12;3.70;;;1.20;;
31692;SDS011;37436;53.230;6.614;2023-07-20T08:14:38;7.95;;;1.45;;
31692;SDS011;37436;53.230;6.614;2023-07-20T08:17:04;3.03;;;1.00;;
31692;SDS011;37436;53.230;6.614;2023-07-20T08:19:30;5.80;;;1.35;;
31692;SDS011;37436;53.230;6.614;2023-07-20T08:21:57;5.88;;;1.40;;
31692;SDS011;37436;53.230;6.614;2023-07-20T08:24:23;3.85;;;1.40;;
31692;SDS011;37436;53.230;6.614;2023-07-20T08:26:49;5.07;;;1.50;;
31692;SDS011;37436;53.230;6.614;2023-07-20T08:29:18;2.05;;;1.38;;
31692;SDS011;37436;53.230;6.614;2023-07-20T08:31:44;6.40;;;1.30;;
31692;SDS011;37436;53.230;6.614;2023-07-20T08:34:10;7.45;;;1.40;;
31692;SDS011;37436;53.230;6.614;2023-07-20T08:36:37;1.48;;;1.25;;
31692;SDS011;37436;53.230;6.614;2023-07-20T08:39:03;5.85;;;0.95;;
31692;SDS011;37436;53.230;6.614;2023-07-20T08:41:29;2.13;;;0.98;;
31692;SDS011;37436;53.230;6.614;2023-07-20T08:43:55;2.63;;;1.13;;
31692;SDS011;37436;53.230;6.614;2023-07-20T08:46:22;2.72;;;1.38;;
31692;SDS011;37436;53.230;6.614;2023-07-20T08:48:49;2.42;;;1.40;;
31692;SDS011;37436;53.230;6.614;2023-07-20T08:51:19;5.57;;;1.38;;
31692;SDS011;37436;53.230;6.614;2023-07-20T08:53:47;1.80;;;0.90;;
31692;SDS011;37436;53.230;6.614;2023-07-20T08:56:13;3.58;;;1.23;;
31692;SDS011;37436;53.230;6.614;2023-07-20T08:58:41;6.63;;;0.70;;
31692;SDS011;37436;53.230;6.614;2023-07-20T09:01:10;4.43;;;0.85;;
31692;SDS011;37436;53.230;6.614;2023-07-20T09:03:37;4.97;;;1.08;;
31692;SDS011;37436;53.230;6.614;2023-07-20T09:06:04;2.45;;;1.00;;
31692;SDS011;37436;53.230;6.614;2023-07-20T09:08:38;6.82;;;0.93;;
31692;SDS011;37436;53.230;6.614;2023-07-20T09:11:05;2.38;;;0.85;;
31692;SDS011;37436;53.230;6.614;2023-07-20T09:13:34;1.60;;;1.00;;
31692;SDS011;37436;53.230;6.614;2023-07-20T09:16:20;8.30;;;1.27;;
31692;SDS011;37436;53.230;6.614;2023-07-20T09:18:46;3.38;;;1.00;;
31692;SDS011;37436;53.230;6.614;2023-07-20T09:21:13;3.72;;;0.90;;
31692;SDS011;37436;53.230;6.614;2023-07-20T09:23:43;1.35;;;0.90;;
31692;SDS011;37436;53.230;6.614;2023-07-20T09:26:10;4.28;;;1.60;;
31692;SDS011;37436;53.230;6.614;2023-07-20T09:28:44;3.22;;;1.10;;
31692;SDS011;37436;53.230;6.614;2023-07-20T09:31:34;3.50;;;1.30;;
31692;SDS011;37436;53.230;6.614;2023-07-20T09:34:07;2.28;;;1.20;;
31692;SDS011;37436;53.230;6.614;2023-07-20T09:36:36;1.38;;;0.90;;
31692;SDS011;37436;53.230;6.614;2023-07-20T09:39:03;4.32;;;1.02;;
31692;SDS011;37436;53.230;6.614;2023-07-20T09:41:31;1.58;;;0.70;;
31692;SDS011;37436;53.230;6.614;2023-07-20T09:44:06;1.35;;;0.80;;
31692;SDS011;37436;53.230;6.614;2023-07-20T09:46:49;6.72;;;1.05;;
31692;SDS011;37436;53.230;6.614;2023-07-20T09:49:21;2.72;;;1.10;;
31692;SDS011;37436;53.230;6.614;2023-07-20T09:51:47;3.40;;;1.42;;
31692;SDS011;37436;53.230;6.614;2023-07-20T09:54:39;3.53;;;0.70;;
31692;SDS011;37436;53.230;6.614;2023-07-20T09:57:09;4.55;;;1.05;;
31692;SDS011;37436;53.230;6.614;2023-07-20T09:59:37;1.58;;;1.05;;
31692;SDS011;37436;53.230;6.614;2023-07-20T10:02:04;4.80;;;1.10;;
31692;SDS011;37436;53.230;6.614;2023-07-20T10:04:34;1.00;;;0.90;;
31692;SDS011;37436;53.230;6.614;2023-07-20T10:07:00;1.45;;;0.82;;
31692;SDS011;37436;53.230;6.614;2023-07-20T10:09:31;4.18;;;1.75;;
31692;SDS011;37436;53.230;6.614;2023-07-20T10:11:58;1.63;;;0.70;;
31692;SDS011;37436;53.230;6.614;2023-07-20T10:14:30;1.27;;;0.80;;
31692;SDS011;37436;53.230;6.614;2023-07-20T10:17:00;2.75;;;1.02;;
31692;SDS011;37436;53.230;6.614;2023-07-20T10:19:31;3.13;;;1.17;;
31692;SDS011;37436;53.230;6.614;2023-07-20T10:22:00;3.22;;;0.77;;
31692;SDS011;37436;53.230;6.614;2023-07-20T10:24:29;1.90;;;0.95;;
31692;SDS011;37436;53.230;6.614;2023-07-20T10:26:55;4.78;;;1.17;;
31692;SDS011;37436;53.230;6.614;2023-07-20T10:29:22;2.63;;;1.00;;
31692;SDS011;37436;53.230;6.614;2023-07-20T10:31:49;3.28;;;0.80;;
31692;SDS011;37436;53.230;6.614;2023-07-20T10:34:16;4.53;;;0.95;;
31692;SDS011;37436;53.230;6.614;2023-07-20T10:36:45;2.22;;;1.00;;
31692;SDS011;37436;53.230;6.614;2023-07-20T10:39:24;3.08;;;1.33;;
31692;SDS011;37436;53.230;6.614;2023-07-20T10:41:59;1.38;;;0.70;;
31692;SDS011;37436;53.230;6.614;2023-07-20T10:44:32;1.65;;;1.05;;
31692;SDS011;37436;53.230;6.614;2023-07-20T10:46:59;2.22;;;1.13;;
31692;SDS011;37436;53.230;6.614;2023-07-20T10:49:28;2.47;;;1.30;;
31692;SDS011;37436;53.230;6.614;2023-07-20T10:54:59;2.33;;;1.10;;
31692;SDS011;37436;53.230;6.614;2023-07-20T10:57:42;1.77;;;1.30;;
31692;SDS011;37436;53.230;6.614;2023-07-20T11:03:12;0.70;;;0.70;;
31692;SDS011;37436;53.230;6.614;2023-07-20T11:05:53;2.90;;;1.33;;
31692;SDS011;37436;53.230;6.614;2023-07-20T11:08:42;2.17;;;1.10;;
31692;SDS011;37436;53.230;6.614;2023-07-20T11:13:55;2.58;;;0.95;;
31692;SDS011;37436;53.230;6.614;2023-07-20T11:16:39;1.05;;;0.90;;
31692;SDS011;37436;53.230;6.614;2023-07-20T11:19:16;3.88;;;1.05;;
31692;SDS011;37436;53.230;6.614;2023-07-20T11:21:49;1.73;;;1.17;;
31692;SDS011;37436;53.230;6.614;2023-07-20T11:24:17;2.67;;;1.02;;
31692;SDS011;37436;53.230;6.614;2023-07-20T11:27:17;0.93;;;0.70;;
31692;SDS011;37436;53.230;6.614;2023-07-20T11:29:47;3.80;;;0.90;;
31692;SDS011;37436;53.230;6.614;2023-07-20T11:32:23;2.75;;;0.60;;
31692;SDS011;37436;53.230;6.614;2023-07-20T11:34:50;0.60;;;0.60;;
31692;SDS011;37436;53.230;6.614;2023-07-20T11:37:16;5.15;;;1.10;;
31692;SDS011;37436;53.230;6.614;2023-07-20T11:39:43;3.92;;;1.38;;
31692;SDS011;37436;53.230;6.614;2023-07-20T11:42:09;3.58;;;1.10;;
31692;SDS011;37436;53.230;6.614;2023-07-20T11:44:40;5.57;;;1.17;;
31692;SDS011;37436;53.230;6.614;2023-07-20T11:47:10;1.35;;;0.77;;
31692;SDS011;37436;53.230;6.614;2023-07-20T11:50:03;2.70;;;1.20;;
31692;SDS011;37436;53.230;6.614;2023-07-20T11:52:30;5.22;;;1.42;;
31692;SDS011;37436;53.230;6.614;2023-07-20T11:54:57;1.20;;;0.82;;
31692;SDS011;37436;53.230;6.614;2023-07-20T12:00:36;3.80;;;0.85;;
31692;SDS011;37436;53.230;6.614;2023-07-20T12:03:05;2.20;;;1.00;;
31692;SDS011;37436;53.230;6.614;2023-07-20T12:05:49;1.08;;;0.80;;
31692;SDS011;37436;53.230;6.614;2023-07-20T12:08:30;1.00;;;0.90;;
31692;SDS011;37436;53.230;6.614;2023-07-20T12:11:16;1.95;;;1.27;;
31692;SDS011;37436;53.230;6.614;2023-07-20T12:14:18;2.55;;;1.08;;
31692;SDS011;37436;53.230;6.614;2023-07-20T12:16:52;1.80;;;0.65;;
31692;SDS011;37436;53.230;6.614;2023-07-20T12:25:20;1.42;;;0.65;;
31692;SDS011;37436;53.230;6.614;2023-07-20T12:27:54;4.32;;;0.82;;
31692;SDS011;37436;53.230;6.614;2023-07-20T12:34:06;1.33;;;0.63;;
31692;SDS011;37436;53.230;6.614;2023-07-20T12:36:37;2.15;;;1.00;;
31692;SDS011;37436;53.230;6.614;2023-07-20T12:39:15;2.50;;;1.00;;
31692;SDS011;37436;53.230;6.614;2023-07-20T12:41:53;1.52;;;0.93;;
31692;SDS011;37436;53.230;6.614;2023-07-20T12:44:23;3.08;;;1.42;;
31692;SDS011;37436;53.230;6.614;2023-07-20T12:47:08;2.25;;;1.05;;
31692;SDS011;37436;53.230;6.614;2023-07-20T12:49:43;2.83;;;1.08;;
31692;SDS011;37436;53.230;6.614;2023-07-20T12:52:45;7.18;;;0.95;;
31692;SDS011;37436;53.230;6.614;2023-07-20T12:57:56;1.48;;;0.95;;
31692;SDS011;37436;53.230;6.614;2023-07-20T13:00:52;2.80;;;0.90;;
31692;SDS011;37436;53.230;6.614;2023-07-20T13:03:20;2.53;;;0.85;;
31692;SDS011;37436;53.230;6.614;2023-07-20T13:05:46;2.90;;;1.15;;
31692;SDS011;37436;53.230;6.614;2023-07-20T13:08:13;4.20;;;1.10;;
31692;SDS011;37436;53.230;6.614;2023-07-20T13:10:39;1.45;;;0.98;;
31692;SDS011;37436;53.230;6.614;2023-07-20T13:13:06;2.50;;;1.10;;
31692;SDS011;37436;53.230;6.614;2023-07-20T13:15:40;1.60;;;0.80;;
31692;SDS011;37436;53.230;6.614;2023-07-20T13:18:07;5.93;;;2.58;;
31692;SDS011;37436;53.230;6.614;2023-07-20T13:20:33;1.70;;;0.90;;
31692;SDS011;37436;53.230;6.614;2023-07-20T13:22:59;5.53;;;1.17;;
31692;SDS011;37436;53.230;6.614;2023-07-20T13:25:36;1.30;;;0.85;;
31692;SDS011;37436;53.230;6.614;2023-07-20T13:28:05;2.03;;;1.13;;
31692;SDS011;37436;53.230;6.614;2023-07-20T13:30:34;4.20;;;1.30;;
31692;SDS011;37436;53.230;6.614;2023-07-20T13:33:14;2.28;;;1.55;;
31692;SDS011;37436;53.230;6.614;2023-07-20T13:35:41;5.50;;;1.42;;
31692;SDS011;37436;53.230;6.614;2023-07-20T13:38:20;3.17;;;1.90;;
31692;SDS011;37436;53.230;6.614;2023-07-20T13:41:06;5.95;;;1.35;;
31692;SDS011;37436;53.230;6.614;2023-07-20T13:43:32;4.00;;;1.48;;
31692;SDS011;37436;53.230;6.614;2023-07-20T13:45:59;3.50;;;1.30;;
31692;SDS011;37436;53.230;6.614;2023-07-20T13:48:26;2.30;;;1.40;;
31692;SDS011;37436;53.230;6.614;2023-07-20T13:50:53;2.63;;;1.33;;
31692;SDS011;37436;53.230;6.614;2023-07-20T13:53:20;2.10;;;0.98;;
31692;SDS011;37436;53.230;6.614;2023-07-20T13:58:55;1.38;;;1.20;;
31692;SDS011;37436;53.230;6.614;2023-07-20T14:01:28;6.57;;;2.03;;
31692;SDS011;37436;53.230;6.614;2023-07-20T14:04:09;3.00;;;1.30;;
31692;SDS011;37436;53.230;6.614;2023-07-20T14:06:39;3.75;;;1.20;;
31692;SDS011;37436;53.230;6.614;2023-07-20T14:09:24;2.20;;;1.38;;
31692;SDS011;37436;53.230;6.614;2023-07-20T14:12:02;4.00;;;1.08;;
31692;SDS011;37436;53.230;6.614;2023-07-20T14:14:37;3.90;;;1.25;;
31692;SDS011;37436;53.230;6.614;2023-07-20T14:17:03;4.20;;;1.10;;
31692;SDS011;37436;53.230;6.614;2023-07-20T14:19:40;1.38;;;1.02;;
31692;SDS011;37436;53.230;6.614;2023-07-20T14:22:25;3.38;;;2.00;;
31692;SDS011;37436;53.230;6.614;2023-07-20T14:25:11;4.93;;;1.80;;
31692;SDS011;37436;53.230;6.614;2023-07-20T14:27:40;2.78;;;1.27;;
31692;SDS011;37436;53.230;6.614;2023-07-20T14:30:07;4.47;;;1.05;;
31692;SDS011;37436;53.230;6.614;2023-07-20T14:32:34;1.42;;;1.00;;
31692;SDS011;37436;53.230;6.614;2023-07-20T14:35:09;6.93;;;1.02;;
31692;SDS011;37436;53.230;6.614;2023-07-20T14:38:02;6.07;;;1.10;;
31692;SDS011;37436;53.230;6.614;2023-07-20T14:40:32;1.65;;;0.93;;
31692;SDS011;37436;53.230;6.614;2023-07-20T14:42:59;2.17;;;0.88;;
31692;SDS011;37436;53.230;6.614;2023-07-20T14:45:47;2.92;;;1.02;;
31692;SDS011;37436;53.230;6.614;2023-07-20T14:48:16;1.95;;;0.90;;
31692;SDS011;37436;53.230;6.614;2023-07-20T14:50:48;4.90;;;1.33;;
31692;SDS011;37436;53.230;6.614;2023-07-20T14:53:14;2.13;;;0.95;;
31692;SDS011;37436;53.230;6.614;2023-07-20T14:55:58;7.22;;;1.60;;
31692;SDS011;37436;53.230;6.614;2023-07-20T15:05:03;5.57;;;1.55;;
31692;SDS011;37436;53.230;6.614;2023-07-20T15:10:45;3.30;;;1.63;;
31692;SDS011;37436;53.230;6.614;2023-07-20T15:13:17;3.30;;;1.40;;
31692;SDS011;37436;53.230;6.614;2023-07-20T15:16:13;3.17;;;1.65;;
31692;SDS011;37436;53.230;6.614;2023-07-20T15:18:41;7.53;;;1.80;;
31692;SDS011;37436;53.230;6.614;2023-07-20T15:21:07;3.50;;;1.48;;
31692;SDS011;37436;53.230;6.614;2023-07-20T15:23:36;4.50;;;1.98;;
31692;SDS011;37436;53.230;6.614;2023-07-20T15:26:07;3.08;;;1.45;;
31692;SDS011;37436;53.230;6.614;2023-07-20T15:28:47;2.20;;;1.30;;
31692;SDS011;37436;53.230;6.614;2023-07-20T15:31:21;12.43;;;2.78;;
31692;SDS011;37436;53.230;6.614;2023-07-20T15:40:10;6.40;;;1.60;;
31692;SDS011;37436;53.230;6.614;2023-07-20T15:43:00;4.50;;;1.50;;
31692;SDS011;37436;53.230;6.614;2023-07-20T15:45:34;4.32;;;1.17;;
31692;SDS011;37436;53.230;6.614;2023-07-20T15:51:20;5.55;;;1.75;;
31692;SDS011;37436;53.230;6.614;2023-07-20T15:53:58;5.75;;;1.40;;
31692;SDS011;37436;53.230;6.614;2023-07-20T15:56:30;4.95;;;2.05;;
31692;SDS011;37436;53.230;6.614;2023-07-20T16:02:11;5.35;;;1.30;;